createdAt,value
2019-01-24T00:00:43.400Z,1003.36
2019-01-24T00:01:43.390Z,1003.36
2019-01-24T00:02:43.381Z,1003.34
2019-01-24T00:03:43.373Z,1003.39
2019-01-24T00:04:43.462Z,1003.39
2019-01-24T00:05:43.391Z,1003.43
2019-01-24T00:06:43.432Z,1003.39
2019-01-24T00:07:43.326Z,1003.41
2019-01-24T00:08:43.316Z,1003.38
2019-01-24T00:09:43.304Z,1003.45
2019-01-24T00:10:43.319Z,1003.43
2019-01-24T00:11:43.284Z,1003.39
2019-01-24T00:12:43.276Z,1003.43
2019-01-24T00:13:43.264Z,1003.38
2019-01-24T00:14:43.251Z,1003.43
2019-01-24T00:15:43.280Z,1003.44
2019-01-24T00:16:43.233Z,1003.45
2019-01-24T00:17:43.221Z,1003.49
2019-01-24T00:18:43.232Z,1003.50
2019-01-24T00:19:43.200Z,1003.48
2019-01-24T00:20:43.189Z,1003.52
2019-01-24T00:21:43.222Z,1003.52
2019-01-24T00:22:43.170Z,1003.47
2019-01-24T00:23:43.159Z,1003.51
2019-01-24T00:24:43.147Z,1003.51
2019-01-24T00:25:43.137Z,1003.51
2019-01-24T00:26:43.128Z,1003.51
2019-01-24T00:27:43.152Z,1003.51
2019-01-24T00:28:43.106Z,1003.53
2019-01-24T00:29:43.096Z,1003.52
2019-01-24T00:30:43.084Z,1003.56
2019-01-24T00:31:43.075Z,1003.56
2019-01-24T00:32:43.064Z,1003.50
2019-01-24T00:33:43.077Z,1003.55
2019-01-24T00:34:43.042Z,1003.52
2019-01-24T00:35:43.039Z,1003.58
2019-01-24T00:36:43.025Z,1003.55
2019-01-24T00:37:43.016Z,1003.59
2019-01-24T00:38:43.041Z,1003.54
2019-01-24T00:39:42.991Z,1003.54
2019-01-24T00:40:42.979Z,1003.56
2019-01-24T00:41:42.976Z,1003.57
2019-01-24T00:42:42.959Z,1003.56
2019-01-24T00:43:42.946Z,1003.63
2019-01-24T00:44:42.974Z,1003.67
2019-01-24T00:45:42.927Z,1003.66
2019-01-24T00:46:42.917Z,1003.68
2019-01-24T00:47:42.907Z,1003.63
2019-01-24T00:48:43.357Z,1003.67
2019-01-24T00:49:42.885Z,1003.75
2019-01-24T00:50:42.897Z,1003.71
2019-01-24T00:51:42.864Z,1003.69
2019-01-24T00:52:42.853Z,1003.75
2019-01-24T00:53:42.843Z,1003.69
2019-01-24T00:54:42.834Z,1003.70
2019-01-24T00:55:42.857Z,1003.71
2019-01-24T00:56:42.815Z,1003.64
2019-01-24T00:57:42.803Z,1003.63
2019-01-24T00:58:42.791Z,1003.65
2019-01-24T00:59:42.780Z,1003.65
2019-01-24T01:00:42.769Z,1003.67
2019-01-24T01:01:42.806Z,1003.64
2019-01-24T01:02:42.748Z,1003.67
2019-01-24T01:03:42.738Z,1003.67
2019-01-24T01:04:42.735Z,1003.70
2019-01-24T01:05:42.717Z,1003.68
2019-01-24T01:06:42.707Z,1003.72
2019-01-24T01:07:42.732Z,1003.74
2019-01-24T01:08:42.685Z,1003.73
2019-01-24T01:09:42.676Z,1003.79
2019-01-24T01:10:42.666Z,1003.79
2019-01-24T01:11:42.654Z,1003.78
2019-01-24T01:12:42.645Z,1003.81
2019-01-24T01:13:42.661Z,1003.81
2019-01-24T01:14:42.631Z,1003.77
2019-01-24T01:15:42.612Z,1003.85
2019-01-24T01:16:42.602Z,1003.83
2019-01-24T01:17:42.594Z,1003.87
2019-01-24T01:18:42.617Z,1003.78
2019-01-24T01:19:42.571Z,1003.83
2019-01-24T01:20:42.560Z,1003.82
2019-01-24T01:21:42.548Z,1003.87
2019-01-24T01:22:42.539Z,1003.85
2019-01-24T01:23:42.530Z,1003.89
2019-01-24T01:24:42.574Z,1003.84
2019-01-24T01:25:42.512Z,1003.85
2019-01-24T01:26:42.496Z,1003.80
2019-01-24T01:27:42.486Z,1003.89
2019-01-24T01:28:42.476Z,1003.93
2019-01-24T01:29:42.464Z,1003.87
2019-01-24T01:30:42.481Z,1003.81
2019-01-24T01:31:42.444Z,1003.95
2019-01-24T01:32:42.433Z,1003.92
2019-01-24T01:33:42.424Z,1003.92
2019-01-24T01:34:42.413Z,1004.00
2019-01-24T01:35:42.438Z,1004.01
2019-01-24T01:36:42.392Z,1004.00
2019-01-24T01:37:42.406Z,1004.01
2019-01-24T01:38:42.370Z,1004.03
2019-01-24T01:39:42.360Z,1003.97
2019-01-24T01:40:42.350Z,1004.09
2019-01-24T01:41:42.376Z,1004.10
2019-01-24T01:42:42.330Z,1004.06
2019-01-24T01:43:42.319Z,1004.01
2019-01-24T01:44:42.308Z,1004.03
2019-01-24T01:45:42.298Z,1004.01
2019-01-24T01:46:42.288Z,1004.02
2019-01-24T01:47:42.327Z,1004.03
2019-01-24T01:48:42.268Z,1004.04
2019-01-24T01:49:42.255Z,1004.04
2019-01-24T01:50:42.266Z,1004.00
2019-01-24T01:51:42.234Z,1004.05
2019-01-24T01:52:42.227Z,1004.07
2019-01-24T01:53:42.240Z,1004.05
2019-01-24T01:54:42.218Z,1004.06
2019-01-24T01:55:42.193Z,1003.97
2019-01-24T01:56:42.182Z,1004.07
2019-01-24T01:57:42.174Z,1004.04
2019-01-24T01:58:42.204Z,1004.02
2019-01-24T01:59:42.151Z,1004.01
2019-01-24T02:00:42.144Z,1004.03
2019-01-24T02:01:42.131Z,1004.05
2019-01-24T02:02:42.125Z,1004.03
2019-01-24T02:03:42.110Z,1004.02
2019-01-24T02:04:43.043Z,1004.01
2019-01-24T02:05:42.092Z,1004.01
2019-01-24T02:06:42.082Z,1004.01
2019-01-24T02:07:42.069Z,1003.97
2019-01-24T02:08:42.058Z,1004.03
2019-01-24T02:09:42.048Z,1004.01
2019-01-24T02:10:42.076Z,1004.03
2019-01-24T02:11:42.027Z,1004.03
2019-01-24T02:12:42.018Z,1004.03
2019-01-24T02:13:42.019Z,1004.01
2019-01-24T02:14:41.998Z,1004.05
2019-01-24T02:15:42.023Z,1004.07
2019-01-24T02:16:41.976Z,1004.07
2019-01-24T02:17:41.967Z,1004.05
2019-01-24T02:18:41.954Z,1004.02
2019-01-24T02:19:41.944Z,1004.07
2019-01-24T02:20:41.934Z,1004.05
2019-01-24T02:21:41.959Z,1004.07
2019-01-24T02:22:41.914Z,1004.03
2019-01-24T02:23:41.909Z,1004.03
2019-01-24T02:24:41.892Z,1004.02
2019-01-24T02:25:41.881Z,1003.97
2019-01-24T02:26:41.874Z,1004.01
2019-01-24T02:27:41.900Z,1003.99
2019-01-24T02:28:41.850Z,1003.99
2019-01-24T02:29:41.842Z,1003.98
2019-01-24T02:30:41.832Z,1004.00
2019-01-24T02:31:41.820Z,1003.95
2019-01-24T02:32:41.811Z,1003.99
2019-01-24T02:33:41.825Z,1003.98
2019-01-24T02:34:41.789Z,1004.00
2019-01-24T02:35:41.777Z,1003.95
2019-01-24T02:36:41.769Z,1003.98
2019-01-24T02:37:41.758Z,1004.01
2019-01-24T02:38:41.784Z,1004.00
2019-01-24T02:39:41.737Z,1004.02
2019-01-24T02:40:41.727Z,1004.07
2019-01-24T02:41:41.716Z,1004.03
2019-01-24T02:42:41.706Z,1004.03
2019-01-24T02:43:41.699Z,1004.05
2019-01-24T02:44:41.722Z,1004.06
2019-01-24T02:45:41.676Z,1004.07
2019-01-24T02:46:41.684Z,1004.07
2019-01-24T02:47:41.666Z,1004.09
2019-01-24T02:48:41.645Z,1004.13
2019-01-24T02:49:41.636Z,1004.12
2019-01-24T02:50:41.649Z,1004.16
2019-01-24T02:51:41.614Z,1004.14
2019-01-24T02:52:41.603Z,1004.14
2019-01-24T02:53:41.598Z,1004.12
2019-01-24T02:54:41.584Z,1004.15
2019-01-24T02:55:41.609Z,1004.15
2019-01-24T02:56:41.570Z,1004.16
2019-01-24T02:57:41.557Z,1004.16
2019-01-24T02:58:41.546Z,1004.14
2019-01-24T02:59:41.532Z,1004.15
2019-01-24T03:00:41.522Z,1004.15
2019-01-24T03:01:41.546Z,1004.14
2019-01-24T03:02:41.501Z,1004.18
2019-01-24T03:03:41.490Z,1004.17
2019-01-24T03:04:41.481Z,1004.19
2019-01-24T03:05:41.469Z,1004.20
2019-01-24T03:06:41.469Z,1004.21
2019-01-24T03:07:41.488Z,1004.21
2019-01-24T03:08:41.439Z,1004.19
2019-01-24T03:09:41.430Z,1004.16
2019-01-24T03:10:41.418Z,1004.18
2019-01-24T03:11:41.407Z,1004.16
2019-01-24T03:12:41.397Z,1004.16
2019-01-24T03:13:41.415Z,1004.13
2019-01-24T03:14:41.375Z,1004.15
2019-01-24T03:15:41.374Z,1004.13
2019-01-24T03:16:41.357Z,1004.13
2019-01-24T03:17:41.345Z,1004.15
2019-01-24T03:18:41.372Z,1004.10
2019-01-24T03:19:41.327Z,1004.13
2019-01-24T03:20:41.315Z,1004.12
2019-01-24T03:21:41.306Z,1004.13
2019-01-24T03:22:41.295Z,1004.13
2019-01-24T03:23:41.286Z,1004.16
2019-01-24T03:24:41.309Z,1004.17
2019-01-24T03:25:41.266Z,1004.16
2019-01-24T03:26:41.254Z,1004.18
2019-01-24T03:27:41.244Z,1004.15
2019-01-24T03:28:41.234Z,1004.18
2019-01-24T03:29:41.242Z,1004.18
2019-01-24T03:30:41.249Z,1004.18
2019-01-24T03:31:41.212Z,1004.17
2019-01-24T03:32:41.192Z,1004.21
2019-01-24T03:33:41.180Z,1004.18
2019-01-24T03:34:41.173Z,1004.14
2019-01-24T03:35:41.161Z,1004.22
2019-01-24T03:36:41.187Z,1004.18
2019-01-24T03:37:41.143Z,1004.17
2019-01-24T03:38:41.131Z,1004.21
2019-01-24T03:39:41.120Z,1004.20
2019-01-24T03:40:41.109Z,1004.25
2019-01-24T03:41:41.102Z,1004.24
2019-01-24T03:42:41.129Z,1004.25
2019-01-24T03:43:41.078Z,1004.27
2019-01-24T03:44:41.068Z,1004.29
2019-01-24T03:45:41.056Z,1004.25
2019-01-24T03:46:41.050Z,1004.25
2019-01-24T03:47:41.038Z,1004.26
2019-01-24T03:48:41.063Z,1004.31
2019-01-24T03:49:41.017Z,1004.31
2019-01-24T03:50:41.005Z,1004.33
2019-01-24T03:51:40.997Z,1004.32
2019-01-24T03:52:40.994Z,1004.37
2019-01-24T03:53:40.973Z,1004.30
2019-01-24T03:54:40.998Z,1004.37
2019-01-24T03:55:40.955Z,1004.34
2019-01-24T03:56:40.943Z,1004.35
2019-01-24T03:57:40.935Z,1004.35
2019-01-24T03:58:40.921Z,1004.37
2019-01-24T03:59:40.912Z,1004.40
2019-01-24T04:00:40.939Z,1004.43
2019-01-24T04:01:40.893Z,1004.41
2019-01-24T04:02:40.905Z,1004.39
2019-01-24T04:03:40.869Z,1004.35
2019-01-24T04:04:40.859Z,1004.39
2019-01-24T04:05:40.854Z,1004.39
2019-01-24T04:06:40.874Z,1004.39
2019-01-24T04:07:40.829Z,1004.38
2019-01-24T04:08:40.818Z,1004.38
2019-01-24T04:09:40.808Z,1004.37
2019-01-24T04:10:40.797Z,1004.39
2019-01-24T04:11:40.789Z,1004.38
2019-01-24T04:12:40.830Z,1004.35
2019-01-24T04:13:40.767Z,1004.41
2019-01-24T04:14:40.757Z,1004.40
2019-01-24T04:15:40.746Z,1004.40
2019-01-24T04:16:40.736Z,1004.39
2019-01-24T04:17:40.724Z,1004.44
2019-01-24T04:18:40.751Z,1004.42
2019-01-24T04:19:40.705Z,1004.41
2019-01-24T04:20:40.697Z,1004.46
2019-01-24T04:21:40.687Z,1004.43
2019-01-24T04:22:40.671Z,1004.47
2019-01-24T04:23:40.662Z,1004.47
2019-01-24T04:24:40.686Z,1004.50
2019-01-24T04:25:40.662Z,1004.49
2019-01-24T04:26:40.631Z,1004.46
2019-01-24T04:27:40.620Z,1004.44
2019-01-24T04:28:40.612Z,1004.48
2019-01-24T04:29:40.600Z,1004.47
2019-01-24T04:30:40.625Z,1004.50
2019-01-24T04:31:40.580Z,1004.49
2019-01-24T04:32:40.566Z,1004.50
2019-01-24T04:33:40.558Z,1004.50
2019-01-24T04:34:40.547Z,1004.52
2019-01-24T04:35:40.538Z,1004.49
2019-01-24T04:36:40.561Z,1004.48
2019-01-24T04:37:40.515Z,1004.46
2019-01-24T04:38:40.517Z,1004.45
2019-01-24T04:39:40.496Z,1004.41
2019-01-24T04:40:40.487Z,1004.45
2019-01-24T04:41:40.474Z,1004.46
2019-01-24T04:42:40.501Z,1004.47
2019-01-24T04:43:40.452Z,1004.48
2019-01-24T04:44:40.442Z,1004.49
2019-01-24T04:45:40.431Z,1004.46
2019-01-24T04:46:40.424Z,1004.49
2019-01-24T04:47:40.412Z,1004.54
2019-01-24T04:48:40.455Z,1004.52
2019-01-24T04:49:40.389Z,1004.53
2019-01-24T04:50:40.380Z,1004.53
2019-01-24T04:51:40.367Z,1004.55
2019-01-24T04:52:40.358Z,1004.59
2019-01-24T04:53:40.349Z,1004.63
2019-01-24T04:54:40.375Z,1004.63
2019-01-24T04:55:40.327Z,1004.64
2019-01-24T04:56:40.318Z,1004.64
2019-01-24T04:57:40.304Z,1004.68
2019-01-24T04:58:40.318Z,1004.68
2019-01-24T04:59:40.287Z,1004.68
2019-01-24T05:00:40.313Z,1004.72
2019-01-24T05:01:40.272Z,1004.72
2019-01-24T05:02:40.254Z,1004.77
2019-01-24T05:03:40.243Z,1004.72
2019-01-24T05:04:40.238Z,1004.81
2019-01-24T05:05:40.224Z,1004.80
2019-01-24T05:06:40.250Z,1004.82
2019-01-24T05:07:40.202Z,1004.85
2019-01-24T05:08:40.192Z,1004.88
2019-01-24T05:09:40.180Z,1004.88
2019-01-24T05:10:40.174Z,1004.87
2019-01-24T05:11:40.160Z,1004.91
2019-01-24T05:12:40.186Z,1004.91
2019-01-24T05:13:40.139Z,1004.90
2019-01-24T05:14:40.129Z,1004.89
2019-01-24T05:15:40.117Z,1004.90
2019-01-24T05:16:40.107Z,1004.91
2019-01-24T05:17:40.098Z,1004.86
2019-01-24T05:18:40.122Z,1004.84
2019-01-24T05:19:40.078Z,1004.85
2019-01-24T05:20:40.065Z,1004.91
2019-01-24T05:21:40.075Z,1004.85
2019-01-24T05:22:40.044Z,1004.85
2019-01-24T05:23:40.037Z,1004.87
2019-01-24T05:24:40.065Z,1004.92
2019-01-24T05:25:40.014Z,1004.88
2019-01-24T05:26:40.003Z,1004.90
2019-01-24T05:27:40.006Z,1004.88
2019-01-24T05:28:39.982Z,1004.89
2019-01-24T05:29:39.974Z,1004.90
2019-01-24T05:30:39.995Z,1004.96
2019-01-24T05:31:39.950Z,1004.95
2019-01-24T05:32:39.941Z,1004.94
2019-01-24T05:33:39.930Z,1004.96
2019-01-24T05:34:39.924Z,1004.96
2019-01-24T05:35:39.909Z,1004.97
2019-01-24T05:36:39.933Z,1004.97
2019-01-24T05:37:39.893Z,1004.96
2019-01-24T05:38:39.878Z,1004.98
2019-01-24T05:39:39.866Z,1004.98
2019-01-24T05:40:39.857Z,1004.97
2019-01-24T05:41:39.849Z,1004.99
2019-01-24T05:42:39.872Z,1004.98
2019-01-24T05:43:39.827Z,1004.97
2019-01-24T05:44:39.825Z,1005.00
2019-01-24T05:45:39.803Z,1005.01
2019-01-24T05:46:39.792Z,1005.02
2019-01-24T05:47:39.784Z,1005.03
2019-01-24T05:48:39.820Z,1005.06
2019-01-24T05:49:39.761Z,1005.02
2019-01-24T05:50:39.752Z,1005.10
2019-01-24T05:51:39.740Z,1005.11
2019-01-24T05:52:39.735Z,1005.12
2019-01-24T05:53:39.718Z,1005.09
2019-01-24T05:54:39.746Z,1005.10
2019-01-24T05:55:39.699Z,1005.08
2019-01-24T05:56:39.692Z,1005.09
2019-01-24T05:57:39.685Z,1005.08
2019-01-24T05:58:39.668Z,1005.10
2019-01-24T05:59:39.660Z,1005.09
2019-01-24T06:00:39.810Z,1005.16
2019-01-24T06:01:39.637Z,1005.12
2019-01-24T06:02:39.631Z,1005.11
2019-01-24T06:03:39.614Z,1005.10
2019-01-24T06:04:39.608Z,1005.11
2019-01-24T06:05:41.911Z,1005.13
2019-01-24T06:06:39.620Z,1005.12
2019-01-24T06:07:39.665Z,1005.13
2019-01-24T06:08:39.562Z,1005.09
2019-01-24T06:09:39.550Z,1005.14
2019-01-24T06:10:39.541Z,1005.17
2019-01-24T06:11:39.529Z,1005.18
2019-01-24T06:12:39.567Z,1005.20
2019-01-24T06:13:39.508Z,1005.21
2019-01-24T06:14:39.500Z,1005.23
2019-01-24T06:15:39.507Z,1005.21
2019-01-24T06:16:39.508Z,1005.23
2019-01-24T06:17:39.467Z,1005.25
2019-01-24T06:18:39.492Z,1005.27
2019-01-24T06:19:39.450Z,1005.22
2019-01-24T06:20:39.442Z,1005.23
2019-01-24T06:21:39.426Z,1005.26
2019-01-24T06:22:39.416Z,1005.29
2019-01-24T06:23:39.405Z,1005.33
2019-01-24T06:24:39.430Z,1005.31
2019-01-24T06:25:39.387Z,1005.27
2019-01-24T06:26:39.379Z,1005.31
2019-01-24T06:27:39.363Z,1005.36
2019-01-24T06:28:39.398Z,1005.34
2019-01-24T06:29:39.343Z,1005.34
2019-01-24T06:30:39.421Z,1005.35
2019-01-24T06:31:39.320Z,1005.41
2019-01-24T06:32:39.312Z,1005.41
2019-01-24T06:33:39.309Z,1005.43
2019-01-24T06:34:39.290Z,1005.46
2019-01-24T06:35:39.294Z,1005.44
2019-01-24T06:36:39.315Z,1005.38
2019-01-24T06:37:39.257Z,1005.44
2019-01-24T06:38:39.247Z,1005.41
2019-01-24T06:39:39.236Z,1005.46
2019-01-24T06:40:39.238Z,1005.45
2019-01-24T06:41:39.215Z,1005.41
2019-01-24T06:42:39.240Z,1005.50
2019-01-24T06:43:39.196Z,1005.49
2019-01-24T06:44:39.183Z,1005.53
2019-01-24T06:45:39.176Z,1005.56
2019-01-24T06:46:39.166Z,1005.59
2019-01-24T06:47:39.155Z,1005.58
2019-01-24T06:48:39.178Z,1005.59
2019-01-24T06:49:39.132Z,1005.58
2019-01-24T06:50:39.124Z,1005.60
2019-01-24T06:51:39.110Z,1005.57
2019-01-24T06:52:39.113Z,1005.61
2019-01-24T06:53:39.094Z,1005.61
2019-01-24T06:54:39.116Z,1005.66
2019-01-24T06:55:39.068Z,1005.66
2019-01-24T06:56:39.058Z,1005.71
2019-01-24T06:57:39.047Z,1005.70
2019-01-24T06:58:39.038Z,1005.73
2019-01-24T06:59:39.030Z,1005.72
2019-01-24T07:00:39.051Z,1005.74
2019-01-24T07:01:39.016Z,1005.79
2019-01-24T07:02:38.996Z,1005.74
2019-01-24T07:03:38.988Z,1005.81
2019-01-24T07:04:38.976Z,1005.80
2019-01-24T07:05:38.965Z,1005.79
2019-01-24T07:06:38.990Z,1005.78
2019-01-24T07:07:38.944Z,1005.76
2019-01-24T07:08:38.932Z,1005.77
2019-01-24T07:09:38.925Z,1005.80
2019-01-24T07:10:38.913Z,1005.80
2019-01-24T07:11:38.905Z,1005.78
2019-01-24T07:12:38.928Z,1005.77
2019-01-24T07:13:38.936Z,1005.80
2019-01-24T07:14:38.870Z,1005.82
2019-01-24T07:15:38.871Z,1005.82
2019-01-24T07:16:38.861Z,1005.80
2019-01-24T07:17:38.840Z,1005.83
2019-01-24T07:18:38.870Z,1005.80
2019-01-24T07:19:38.817Z,1005.90
2019-01-24T07:20:38.807Z,1005.85
2019-01-24T07:21:38.798Z,1005.85
2019-01-24T07:22:38.800Z,1005.79
2019-01-24T07:23:38.776Z,1005.85
2019-01-24T07:24:38.805Z,1005.86
2019-01-24T07:25:38.754Z,1005.87
2019-01-24T07:26:38.744Z,1005.85
2019-01-24T07:27:38.737Z,1005.84
2019-01-24T07:28:38.724Z,1005.89
2019-01-24T07:29:38.712Z,1005.86
2019-01-24T07:30:38.739Z,1005.90
2019-01-24T07:31:38.691Z,1005.92
2019-01-24T07:32:38.680Z,1005.94
2019-01-24T07:33:38.672Z,1005.95
2019-01-24T07:34:38.661Z,1005.90
2019-01-24T07:35:38.648Z,1005.93
2019-01-24T07:36:38.675Z,1005.93
2019-01-24T07:37:38.636Z,1005.94
2019-01-24T07:38:38.618Z,1005.96
2019-01-24T07:39:38.607Z,1005.97
2019-01-24T07:40:38.598Z,1005.97
2019-01-24T07:41:38.589Z,1005.99
2019-01-24T07:42:38.613Z,1006.02
2019-01-24T07:43:38.567Z,1006.00
2019-01-24T07:44:38.555Z,1006.04
2019-01-24T07:45:38.547Z,1006.00
2019-01-24T07:46:38.534Z,1006.09
2019-01-24T07:47:38.550Z,1006.11
2019-01-24T07:48:38.551Z,1006.07
2019-01-24T07:49:38.503Z,1006.16
2019-01-24T07:50:38.498Z,1006.20
2019-01-24T07:51:38.483Z,1006.19
2019-01-24T07:52:38.473Z,1006.22
2019-01-24T07:53:38.460Z,1006.24
2019-01-24T07:54:38.487Z,1006.17
2019-01-24T07:55:38.440Z,1006.18
2019-01-24T07:56:38.428Z,1006.22
2019-01-24T07:57:38.418Z,1006.24
2019-01-24T07:58:38.409Z,1006.25
2019-01-24T07:59:38.398Z,1006.26
2019-01-24T08:00:38.434Z,1006.25
2019-01-24T08:01:38.377Z,1006.25
2019-01-24T08:02:38.369Z,1006.27
2019-01-24T08:03:38.362Z,1006.21
2019-01-24T08:04:38.348Z,1006.25
2019-01-24T08:05:38.335Z,1006.23
2019-01-24T08:06:38.350Z,1006.20
2019-01-24T08:07:38.315Z,1006.19
2019-01-24T08:08:38.303Z,1006.19
2019-01-24T08:09:38.322Z,1006.24
2019-01-24T08:10:38.302Z,1006.19
2019-01-24T08:11:38.278Z,1006.19
2019-01-24T08:12:38.299Z,1006.23
2019-01-24T08:13:38.251Z,1006.19
2019-01-24T08:14:38.240Z,1006.17
2019-01-24T08:15:38.236Z,1006.22
2019-01-24T08:16:38.221Z,1006.25
2019-01-24T08:17:38.210Z,1006.19
2019-01-24T08:18:38.239Z,1006.18
2019-01-24T08:19:38.192Z,1006.19
2019-01-24T08:20:38.178Z,1006.18
2019-01-24T08:21:38.171Z,1006.24
2019-01-24T08:22:38.161Z,1006.19
2019-01-24T08:23:38.146Z,1006.23
2019-01-24T08:24:38.174Z,1006.22
2019-01-24T08:25:38.127Z,1006.24
2019-01-24T08:26:38.117Z,1006.22
2019-01-24T08:27:38.107Z,1006.22
2019-01-24T08:28:38.098Z,1006.23
2019-01-24T08:29:38.085Z,1006.24
2019-01-24T08:30:38.115Z,1006.28
2019-01-24T08:31:38.067Z,1006.28
2019-01-24T08:32:38.228Z,1006.26
2019-01-24T08:33:38.065Z,1006.30
2019-01-24T08:34:38.034Z,1006.28
2019-01-24T08:35:38.049Z,1006.28
2019-01-24T08:36:38.063Z,1006.32
2019-01-24T08:37:38.005Z,1006.31
2019-01-24T08:38:37.992Z,1006.32
2019-01-24T08:39:37.983Z,1006.33
2019-01-24T08:40:37.976Z,1006.36
2019-01-24T08:41:37.960Z,1006.38
2019-01-24T08:42:37.986Z,1006.40
2019-01-24T08:43:37.958Z,1006.39
2019-01-24T08:44:37.932Z,1006.37
2019-01-24T08:45:37.925Z,1006.40
2019-01-24T08:46:37.925Z,1006.38
2019-01-24T08:47:37.899Z,1006.40
2019-01-24T08:48:37.925Z,1006.40
2019-01-24T08:49:37.880Z,1006.42
2019-01-24T08:50:37.868Z,1006.45
2019-01-24T08:51:37.858Z,1006.45
2019-01-24T08:52:37.847Z,1006.38
2019-01-24T08:53:37.836Z,1006.38
2019-01-24T08:54:37.864Z,1006.42
2019-01-24T08:55:37.816Z,1006.40
2019-01-24T08:56:37.808Z,1006.41
2019-01-24T08:57:37.796Z,1006.45
2019-01-24T08:58:37.784Z,1006.41
2019-01-24T08:59:37.774Z,1006.42
2019-01-24T09:00:37.806Z,1006.45
2019-01-24T09:01:37.756Z,1006.46
2019-01-24T09:02:37.746Z,1006.44
2019-01-24T09:03:37.733Z,1006.48
2019-01-24T09:04:37.725Z,1006.46
2019-01-24T09:05:37.710Z,1006.46
2019-01-24T09:06:37.741Z,1006.51
2019-01-24T09:07:37.694Z,1006.50
2019-01-24T09:08:37.680Z,1006.46
2019-01-24T09:09:37.671Z,1006.51
2019-01-24T09:10:37.662Z,1006.52
2019-01-24T09:11:37.650Z,1006.46
2019-01-24T09:12:37.675Z,1006.50
2019-01-24T09:13:37.633Z,1006.49
2019-01-24T09:14:37.616Z,1006.48
2019-01-24T09:15:37.609Z,1006.48
2019-01-24T09:16:37.599Z,1006.45
2019-01-24T09:17:37.586Z,1006.47
2019-01-24T09:18:37.616Z,1006.50
2019-01-24T09:19:37.566Z,1006.53
2019-01-24T09:20:37.563Z,1006.50
2019-01-24T09:21:37.548Z,1006.52
2019-01-24T09:22:37.539Z,1006.50
2019-01-24T09:23:37.525Z,1006.46
2019-01-24T09:24:37.552Z,1006.46
2019-01-24T09:25:37.507Z,1006.53
2019-01-24T09:26:37.494Z,1006.49
2019-01-24T09:27:37.486Z,1006.52
2019-01-24T09:28:37.477Z,1006.52
2019-01-24T09:29:37.476Z,1006.51
2019-01-24T09:30:37.491Z,1006.52
2019-01-24T09:31:37.445Z,1006.47
2019-01-24T09:32:37.436Z,1006.53
2019-01-24T09:33:37.422Z,1006.52
2019-01-24T09:34:37.411Z,1006.47
2019-01-24T09:35:37.400Z,1006.51
2019-01-24T09:36:37.429Z,1006.58
2019-01-24T09:37:37.381Z,1006.60
2019-01-24T09:38:37.369Z,1006.59
2019-01-24T09:39:37.372Z,1006.58
2019-01-24T09:40:37.352Z,1006.56
2019-01-24T09:41:37.339Z,1006.63
2019-01-24T09:42:37.392Z,1006.62
2019-01-24T09:43:37.320Z,1006.64
2019-01-24T09:44:37.306Z,1006.64
2019-01-24T09:45:37.297Z,1006.61
2019-01-24T09:46:37.288Z,1006.65
2019-01-24T09:47:37.278Z,1006.66
2019-01-24T09:48:37.403Z,1006.68
2019-01-24T09:49:37.257Z,1006.71
2019-01-24T09:50:37.243Z,1006.66
2019-01-24T09:51:37.236Z,1006.67
2019-01-24T09:52:37.227Z,1006.66
2019-01-24T09:53:37.224Z,1006.66
2019-01-24T09:54:37.242Z,1006.60
2019-01-24T09:55:37.196Z,1006.58
2019-01-24T09:56:37.185Z,1006.56
2019-01-24T09:57:37.174Z,1006.59
2019-01-24T09:58:37.166Z,1006.62
2019-01-24T09:59:37.151Z,1006.65
2019-01-24T10:00:37.179Z,1006.62
2019-01-24T10:01:37.136Z,1006.61
2019-01-24T10:02:37.138Z,1006.65
2019-01-24T10:03:37.112Z,1006.66
2019-01-24T10:04:37.101Z,1006.66
2019-01-24T10:05:37.090Z,1006.72
2019-01-24T10:06:37.118Z,1006.71
2019-01-24T10:07:37.068Z,1006.70
2019-01-24T10:08:37.058Z,1006.68
2019-01-24T10:09:37.048Z,1006.70
2019-01-24T10:10:37.039Z,1006.68
2019-01-24T10:11:37.039Z,1006.72
2019-01-24T10:12:37.066Z,1006.71
2019-01-24T10:13:37.006Z,1006.68
2019-01-24T10:14:36.999Z,1006.68
2019-01-24T10:15:36.993Z,1006.66
2019-01-24T10:16:36.978Z,1006.66
2019-01-24T10:17:36.965Z,1006.69
2019-01-24T10:18:36.994Z,1006.61
2019-01-24T10:19:36.949Z,1006.58
2019-01-24T10:20:36.935Z,1006.64
2019-01-24T10:21:36.925Z,1006.60
2019-01-24T10:22:36.916Z,1006.61
2019-01-24T10:23:36.904Z,1006.69
2019-01-24T10:24:36.932Z,1006.65
2019-01-24T10:25:36.898Z,1006.62
2019-01-24T10:26:36.885Z,1006.64
2019-01-24T10:27:36.862Z,1006.70
2019-01-24T10:28:36.852Z,1006.73
2019-01-24T10:29:36.841Z,1006.74
2019-01-24T10:30:42.721Z,1006.80
2019-01-24T10:31:37.820Z,1006.79
2019-01-24T10:32:36.827Z,1006.80
2019-01-24T10:33:36.800Z,1006.81
2019-01-24T10:34:36.793Z,1006.84
2019-01-24T10:35:36.779Z,1006.77
2019-01-24T10:36:42.857Z,1006.79
2019-01-24T10:37:37.757Z,1006.78
2019-01-24T10:38:36.758Z,1006.79
2019-01-24T10:39:36.739Z,1006.79
2019-01-24T10:40:36.730Z,1006.80
2019-01-24T10:41:36.716Z,1006.86
2019-01-24T10:42:36.755Z,1006.83
2019-01-24T10:43:36.695Z,1006.82
2019-01-24T10:44:36.684Z,1006.79
2019-01-24T10:45:36.676Z,1006.82
2019-01-24T10:46:36.662Z,1006.82
2019-01-24T10:47:36.653Z,1006.88
2019-01-24T10:48:36.689Z,1006.86
2019-01-24T10:49:36.631Z,1006.83
2019-01-24T10:50:36.621Z,1006.86
2019-01-24T10:51:36.609Z,1006.90
2019-01-24T10:52:36.600Z,1006.81
2019-01-24T10:53:36.590Z,1006.77
2019-01-24T10:54:36.615Z,1006.81
2019-01-24T10:55:36.568Z,1006.73
2019-01-24T10:56:36.557Z,1006.75
2019-01-24T10:57:36.546Z,1006.77
2019-01-24T10:58:36.557Z,1006.73
2019-01-24T10:59:36.528Z,1006.72
2019-01-24T11:00:36.553Z,1006.71
2019-01-24T11:01:36.543Z,1006.71
2019-01-24T11:02:36.493Z,1006.73
2019-01-24T11:03:36.483Z,1006.70
2019-01-24T11:04:36.484Z,1006.72
2019-01-24T11:05:36.469Z,1006.79
2019-01-24T11:06:36.490Z,1006.75
2019-01-24T11:07:36.441Z,1006.78
2019-01-24T11:08:36.433Z,1006.78
2019-01-24T11:09:44.407Z,1006.75
2019-01-24T11:10:36.418Z,1006.80
2019-01-24T11:11:36.400Z,1006.72
2019-01-24T11:12:36.428Z,1006.75
2019-01-24T11:13:36.380Z,1006.77
2019-01-24T11:14:36.369Z,1006.75
2019-01-24T11:15:36.358Z,1006.78
2019-01-24T11:16:36.346Z,1006.77
2019-01-24T11:17:36.338Z,1006.80
2019-01-24T11:18:36.371Z,1006.81
2019-01-24T11:19:36.317Z,1006.82
2019-01-24T11:20:36.309Z,1006.83
2019-01-24T11:21:36.296Z,1006.80
2019-01-24T11:22:36.285Z,1006.80
2019-01-24T11:23:36.278Z,1006.81
2019-01-24T11:24:36.309Z,1006.81
2019-01-24T11:25:36.256Z,1006.75
2019-01-24T11:26:36.249Z,1006.76
2019-01-24T11:27:36.234Z,1006.81
2019-01-24T11:28:36.224Z,1006.76
2019-01-24T11:29:36.214Z,1006.79
2019-01-24T11:30:36.240Z,1006.83
2019-01-24T11:31:36.191Z,1006.79
2019-01-24T11:32:36.189Z,1006.80
2019-01-24T11:33:36.173Z,1006.78
2019-01-24T11:34:36.162Z,1006.79
2019-01-24T11:35:36.154Z,1006.76
2019-01-24T11:36:36.176Z,1006.78
2019-01-24T11:37:36.131Z,1006.80
2019-01-24T11:38:36.124Z,1006.82
2019-01-24T11:39:36.111Z,1006.78
2019-01-24T11:40:36.099Z,1006.81
2019-01-24T11:41:36.091Z,1006.78
2019-01-24T11:42:36.116Z,1006.71
2019-01-24T11:43:36.079Z,1006.75
2019-01-24T11:44:36.182Z,1006.73
2019-01-24T11:45:36.050Z,1006.75
2019-01-24T11:46:36.040Z,1006.73
2019-01-24T11:47:36.031Z,1006.81
2019-01-24T11:48:36.076Z,1006.85
2019-01-24T11:49:36.006Z,1006.82
2019-01-24T11:50:35.994Z,1006.80
2019-01-24T11:51:35.989Z,1006.80
2019-01-24T11:52:35.982Z,1006.80
2019-01-24T11:53:35.965Z,1006.79
2019-01-24T11:54:35.992Z,1006.79
2019-01-24T11:55:35.943Z,1006.79
2019-01-24T11:56:35.933Z,1006.81
2019-01-24T11:57:35.921Z,1006.80
2019-01-24T11:58:35.921Z,1006.79
2019-01-24T11:59:35.901Z,1006.81
2019-01-24T12:00:35.931Z,1006.83
2019-01-24T12:01:35.890Z,1006.83
2019-01-24T12:02:39.658Z,1006.82
2019-01-24T12:03:35.869Z,1006.80
2019-01-24T12:04:35.848Z,1006.80
2019-01-24T12:05:35.838Z,1006.81